sensor_id;sensor_type;location;lat;lon;timestamp;temperature;humidity
78694;SHT31;68029;51.978;5.646;2023-04-15T00:01:38;12.1;48.9
78694;SHT31;68029;51.978;5.646;2023-04-15T00:04:07;12.1;49.0
78694;SHT31;68029;51.978;5.646;2023-04-15T00:06:38;12.1;49.6
78694;SHT31;68029;51.978;5.646;2023-04-15T00:09:08;12.1;49.2
78694;SHT31;68029;51.978;5.646;2023-04-15T00:11:38;12.1;49.1
78694;SHT31;68029;51.978;5.646;2023-04-15T00:14:07;12.1;49.0
78694;SHT31;68029;51.978;5.646;2023-04-15T00:16:40;12.1;49.2
78694;SHT31;68029;51.978;5.646;2023-04-15T00:19:09;12.1;49.3
78694;SHT31;68029;51.978;5.646;2023-04-15T00:21:39;12.0;49.1
78694;SHT31;68029;51.978;5.646;2023-04-15T00:24:11;12.0;49.2
78694;SHT31;68029;51.978;5.646;2023-04-15T00:26:42;12.0;49.3
78694;SHT31;68029;51.978;5.646;2023-04-15T00:29:12;12.0;49.4
78694;SHT31;68029;51.978;5.646;2023-04-15T00:31:42;12.0;49.4
78694;SHT31;68029;51.978;5.646;2023-04-15T00:34:12;12.0;49.3
78694;SHT31;68029;51.978;5.646;2023-04-15T00:36:42;12.0;49.6
78694;SHT31;68029;51.978;5.646;2023-04-15T00:39:14;11.9;49.7
78694;SHT31;68029;51.978;5.646;2023-04-15T00:41:45;11.9;50.0
78694;SHT31;68029;51.978;5.646;2023-04-15T00:44:15;11.9;50.2
78694;SHT31;68029;51.978;5.646;2023-04-15T00:46:46;11.9;50.2
78694;SHT31;68029;51.978;5.646;2023-04-15T00:49:16;11.9;50.3
78694;SHT31;68029;51.978;5.646;2023-04-15T00:51:46;11.8;50.7
78694;SHT31;68029;51.978;5.646;2023-04-15T00:54:16;11.8;50.6
78694;SHT31;68029;51.978;5.646;2023-04-15T00:56:45;11.8;51.1
78694;SHT31;68029;51.978;5.646;2023-04-15T00:59:16;11.8;51.6
78694;SHT31;68029;51.978;5.646;2023-04-15T01:01:47;11.8;51.5
78694;SHT31;68029;51.978;5.646;2023-04-15T01:04:17;11.8;51.7
78694;SHT31;68029;51.978;5.646;2023-04-15T01:06:46;11.8;51.5
78694;SHT31;68029;51.978;5.646;2023-04-15T01:09:17;11.8;51.5
78694;SHT31;68029;51.978;5.646;2023-04-15T01:11:47;11.8;51.1
78694;SHT31;68029;51.978;5.646;2023-04-15T01:14:17;11.7;51.7
78694;SHT31;68029;51.978;5.646;2023-04-15T01:16:47;11.7;51.6
78694;SHT31;68029;51.978;5.646;2023-04-15T01:19:17;11.7;51.1
78694;SHT31;68029;51.978;5.646;2023-04-15T01:21:48;11.7;51.4
78694;SHT31;68029;51.978;5.646;2023-04-15T01:24:18;11.7;51.4
78694;SHT31;68029;51.978;5.646;2023-04-15T01:26:49;11.6;51.3
78694;SHT31;68029;51.978;5.646;2023-04-15T01:29:19;11.6;51.2
78694;SHT31;68029;51.978;5.646;2023-04-15T01:31:51;11.5;51.8
78694;SHT31;68029;51.978;5.646;2023-04-15T01:34:22;11.5;52.3
78694;SHT31;68029;51.978;5.646;2023-04-15T01:36:52;11.4;51.9
78694;SHT31;68029;51.978;5.646;2023-04-15T01:39:21;11.4;52.0
78694;SHT31;68029;51.978;5.646;2023-04-15T01:41:51;11.3;52.4
78694;SHT31;68029;51.978;5.646;2023-04-15T01:44:21;11.2;52.4
78694;SHT31;68029;51.978;5.646;2023-04-15T01:46:52;11.2;52.6
78694;SHT31;68029;51.978;5.646;2023-04-15T01:49:22;11.1;52.7
78694;SHT31;68029;51.978;5.646;2023-04-15T01:51:51;11.1;53.0
78694;SHT31;68029;51.978;5.646;2023-04-15T01:54:21;11.1;53.7
78694;SHT31;68029;51.978;5.646;2023-04-15T01:56:51;11.0;53.5
78694;SHT31;68029;51.978;5.646;2023-04-15T01:59:20;11.0;53.8
78694;SHT31;68029;51.978;5.646;2023-04-15T02:01:51;10.9;53.8
78694;SHT31;68029;51.978;5.646;2023-04-15T02:04:21;10.9;53.8
78694;SHT31;68029;51.978;5.646;2023-04-15T02:06:51;10.9;54.1
78694;SHT31;68029;51.978;5.646;2023-04-15T02:09:20;10.8;53.9
78694;SHT31;68029;51.978;5.646;2023-04-15T02:11:51;10.8;54.2
78694;SHT31;68029;51.978;5.646;2023-04-15T02:14:21;10.7;54.3
78694;SHT31;68029;51.978;5.646;2023-04-15T02:16:50;10.7;54.6
78694;SHT31;68029;51.978;5.646;2023-04-15T02:19:20;10.7;55.1
78694;SHT31;68029;51.978;5.646;2023-04-15T02:21:50;10.6;55.1
78694;SHT31;68029;51.978;5.646;2023-04-15T02:24:19;10.6;55.1
78694;SHT31;68029;51.978;5.646;2023-04-15T02:26:49;10.6;56.0
78694;SHT31;68029;51.978;5.646;2023-04-15T02:29:18;10.6;55.8
78694;SHT31;68029;51.978;5.646;2023-04-15T02:31:49;10.6;55.8
78694;SHT31;68029;51.978;5.646;2023-04-15T02:34:19;10.6;55.4
78694;SHT31;68029;51.978;5.646;2023-04-15T02:36:49;10.5;55.4
78694;SHT31;68029;51.978;5.646;2023-04-15T02:39:22;10.5;55.6
78694;SHT31;68029;51.978;5.646;2023-04-15T02:41:54;10.5;55.6
78694;SHT31;68029;51.978;5.646;2023-04-15T02:44:27;10.5;55.9
78694;SHT31;68029;51.978;5.646;2023-04-15T02:46:58;10.4;56.0
78694;SHT31;68029;51.978;5.646;2023-04-15T02:49:28;10.4;55.7
78694;SHT31;68029;51.978;5.646;2023-04-15T02:51:58;10.4;55.8
78694;SHT31;68029;51.978;5.646;2023-04-15T02:54:29;10.3;56.0
78694;SHT31;68029;51.978;5.646;2023-04-15T02:57:00;10.3;56.3
78694;SHT31;68029;51.978;5.646;2023-04-15T02:59:33;10.3;56.3
78694;SHT31;68029;51.978;5.646;2023-04-15T03:02:02;10.2;56.7
78694;SHT31;68029;51.978;5.646;2023-04-15T03:04:34;10.2;56.6
78694;SHT31;68029;51.978;5.646;2023-04-15T03:07:03;10.1;56.9
78694;SHT31;68029;51.978;5.646;2023-04-15T03:09:33;10.1;57.5
78694;SHT31;68029;51.978;5.646;2023-04-15T03:12:05;10.0;57.5
78694;SHT31;68029;51.978;5.646;2023-04-15T03:14:34;10.0;57.6
78694;SHT31;68029;51.978;5.646;2023-04-15T03:17:04;10.0;57.7
78694;SHT31;68029;51.978;5.646;2023-04-15T03:19:34;10.0;57.8
78694;SHT31;68029;51.978;5.646;2023-04-15T03:22:04;9.9;57.8
78694;SHT31;68029;51.978;5.646;2023-04-15T03:24:33;9.9;58.1
78694;SHT31;68029;51.978;5.646;2023-04-15T03:27:03;9.9;58.3
78694;SHT31;68029;51.978;5.646;2023-04-15T03:29:34;9.8;58.3
78694;SHT31;68029;51.978;5.646;2023-04-15T03:32:04;9.8;58.6
78694;SHT31;68029;51.978;5.646;2023-04-15T03:34:34;9.8;58.8
78694;SHT31;68029;51.978;5.646;2023-04-15T03:37:04;9.8;58.9
78694;SHT31;68029;51.978;5.646;2023-04-15T03:39:34;9.7;59.0
78694;SHT31;68029;51.978;5.646;2023-04-15T03:42:06;9.7;59.3
78694;SHT31;68029;51.978;5.646;2023-04-15T03:44:35;9.7;59.4
78694;SHT31;68029;51.978;5.646;2023-04-15T03:47:07;9.6;59.7
78694;SHT31;68029;51.978;5.646;2023-04-15T03:49:37;9.6;59.7
78694;SHT31;68029;51.978;5.646;2023-04-15T03:52:09;9.6;59.8
78694;SHT31;68029;51.978;5.646;2023-04-15T03:54:38;9.6;60.0
78694;SHT31;68029;51.978;5.646;2023-04-15T03:57:08;9.5;60.2
78694;SHT31;68029;51.978;5.646;2023-04-15T03:59:38;9.5;60.4
78694;SHT31;68029;51.978;5.646;2023-04-15T04:02:07;9.5;60.5
78694;SHT31;68029;51.978;5.646;2023-04-15T04:04:37;9.5;60.7
78694;SHT31;68029;51.978;5.646;2023-04-15T04:07:07;9.4;60.8
78694;SHT31;68029;51.978;5.646;2023-04-15T04:09:37;9.4;61.0
78694;SHT31;68029;51.978;5.646;2023-04-15T04:12:08;9.4;61.1
78694;SHT31;68029;51.978;5.646;2023-04-15T04:14:38;9.4;61.2
78694;SHT31;68029;51.978;5.646;2023-04-15T04:17:08;9.3;61.3
78694;SHT31;68029;51.978;5.646;2023-04-15T04:19:40;9.3;61.5
78694;SHT31;68029;51.978;5.646;2023-04-15T04:22:09;9.3;61.6
78694;SHT31;68029;51.978;5.646;2023-04-15T04:24:39;9.3;61.8
78694;SHT31;68029;51.978;5.646;2023-04-15T04:27:10;9.3;61.9
78694;SHT31;68029;51.978;5.646;2023-04-15T04:29:40;9.3;62.0
78694;SHT31;68029;51.978;5.646;2023-04-15T04:32:09;9.2;62.2
78694;SHT31;68029;51.978;5.646;2023-04-15T04:34:39;9.2;62.1
78694;SHT31;68029;51.978;5.646;2023-04-15T04:37:08;9.2;62.2
78694;SHT31;68029;51.978;5.646;2023-04-15T04:39:38;9.2;62.3
78694;SHT31;68029;51.978;5.646;2023-04-15T04:42:07;9.2;62.5
78694;SHT31;68029;51.978;5.646;2023-04-15T04:44:40;9.2;62.5
78694;SHT31;68029;51.978;5.646;2023-04-15T04:47:10;9.1;62.9
78694;SHT31;68029;51.978;5.646;2023-04-15T04:49:40;9.1;62.8
78694;SHT31;68029;51.978;5.646;2023-04-15T04:52:10;9.1;62.8
78694;SHT31;68029;51.978;5.646;2023-04-15T04:54:40;9.1;62.8
78694;SHT31;68029;51.978;5.646;2023-04-15T04:57:09;9.1;63.0
78694;SHT31;68029;51.978;5.646;2023-04-15T04:59:40;9.1;63.1
78694;SHT31;68029;51.978;5.646;2023-04-15T05:02:09;9.1;63.4
78694;SHT31;68029;51.978;5.646;2023-04-15T05:04:39;9.1;63.2
78694;SHT31;68029;51.978;5.646;2023-04-15T05:07:10;9.1;63.3
78694;SHT31;68029;51.978;5.646;2023-04-15T05:09:41;9.1;63.5
78694;SHT31;68029;51.978;5.646;2023-04-15T05:12:11;9.1;63.6
78694;SHT31;68029;51.978;5.646;2023-04-15T05:14:41;9.0;63.7
78694;SHT31;68029;51.978;5.646;2023-04-15T05:17:13;9.0;63.8
78694;SHT31;68029;51.978;5.646;2023-04-15T05:19:42;9.0;64.1
78694;SHT31;68029;51.978;5.646;2023-04-15T05:22:12;9.0;63.9
78694;SHT31;68029;51.978;5.646;2023-04-15T05:24:42;9.0;64.1
78694;SHT31;68029;51.978;5.646;2023-04-15T05:27:12;9.0;64.2
78694;SHT31;68029;51.978;5.646;2023-04-15T05:29:42;9.0;64.2
78694;SHT31;68029;51.978;5.646;2023-04-15T05:32:13;9.1;64.4
78694;SHT31;68029;51.978;5.646;2023-04-15T05:34:43;9.1;64.6
78694;SHT31;68029;51.978;5.646;2023-04-15T05:37:13;9.1;64.6
78694;SHT31;68029;51.978;5.646;2023-04-15T05:39:45;9.2;64.5
78694;SHT31;68029;51.978;5.646;2023-04-15T05:42:14;9.2;64.8
78694;SHT31;68029;51.978;5.646;2023-04-15T05:44:46;9.2;65.0
78694;SHT31;68029;51.978;5.646;2023-04-15T05:47:16;9.3;64.8
78694;SHT31;68029;51.978;5.646;2023-04-15T05:49:45;9.4;64.7
78694;SHT31;68029;51.978;5.646;2023-04-15T05:52:15;9.5;64.7
78694;SHT31;68029;51.978;5.646;2023-04-15T05:54:45;9.6;64.6
78694;SHT31;68029;51.978;5.646;2023-04-15T05:57:14;9.7;64.6
78694;SHT31;68029;51.978;5.646;2023-04-15T05:59:44;9.8;64.1
78694;SHT31;68029;51.978;5.646;2023-04-15T06:02:14;9.9;64.3
78694;SHT31;68029;51.978;5.646;2023-04-15T06:04:44;10.0;64.2
78694;SHT31;68029;51.978;5.646;2023-04-15T06:07:13;10.1;63.8
78694;SHT31;68029;51.978;5.646;2023-04-15T06:09:43;10.2;63.2
78694;SHT31;68029;51.978;5.646;2023-04-15T06:12:13;10.4;63.3
78694;SHT31;68029;51.978;5.646;2023-04-15T06:14:43;10.5;62.7
78694;SHT31;68029;51.978;5.646;2023-04-15T06:17:14;10.6;63.0
78694;SHT31;68029;51.978;5.646;2023-04-15T06:19:45;10.8;62.3
78694;SHT31;68029;51.978;5.646;2023-04-15T06:22:17;10.9;61.6
78694;SHT31;68029;51.978;5.646;2023-04-15T06:24:46;11.0;61.7
78694;SHT31;68029;51.978;5.646;2023-04-15T06:27:18;11.1;61.3
78694;SHT31;68029;51.978;5.646;2023-04-15T06:29:50;11.2;61.5
78694;SHT31;68029;51.978;5.646;2023-04-15T06:32:19;11.3;60.8
78694;SHT31;68029;51.978;5.646;2023-04-15T06:34:49;11.5;60.3
78694;SHT31;68029;51.978;5.646;2023-04-15T06:37:18;11.6;60.6
78694;SHT31;68029;51.978;5.646;2023-04-15T06:39:50;11.7;60.3
78694;SHT31;68029;51.978;5.646;2023-04-15T06:42:20;11.8;60.1
78694;SHT31;68029;51.978;5.646;2023-04-15T06:44:50;11.9;59.3
78694;SHT31;68029;51.978;5.646;2023-04-15T06:47:19;12.0;59.7
78694;SHT31;68029;51.978;5.646;2023-04-15T06:49:49;12.1;59.0
78694;SHT31;68029;51.978;5.646;2023-04-15T06:52:20;12.3;58.3
78694;SHT31;68029;51.978;5.646;2023-04-15T06:54:50;12.3;58.2
78694;SHT31;68029;51.978;5.646;2023-04-15T06:57:20;12.4;58.3
78694;SHT31;68029;51.978;5.646;2023-04-15T06:59:49;12.5;58.3
78694;SHT31;68029;51.978;5.646;2023-04-15T07:02:21;12.6;57.9
78694;SHT31;68029;51.978;5.646;2023-04-15T07:04:51;12.6;58.3
78694;SHT31;68029;51.978;5.646;2023-04-15T07:07:22;12.7;57.7
78694;SHT31;68029;51.978;5.646;2023-04-15T07:09:52;12.8;57.4
78694;SHT31;68029;51.978;5.646;2023-04-15T07:12:24;12.9;56.6
78694;SHT31;68029;51.978;5.646;2023-04-15T07:14:54;13.0;56.8
78694;SHT31;68029;51.978;5.646;2023-04-15T07:17:24;13.1;55.9
78694;SHT31;68029;51.978;5.646;2023-04-15T07:19:54;13.2;56.1
78694;SHT31;68029;51.978;5.646;2023-04-15T07:22:24;13.3;56.2
78694;SHT31;68029;51.978;5.646;2023-04-15T07:24:53;13.4;54.9
78694;SHT31;68029;51.978;5.646;2023-04-15T07:27:25;13.5;54.8
78694;SHT31;68029;51.978;5.646;2023-04-15T07:29:54;13.6;53.3
78694;SHT31;68029;51.978;5.646;2023-04-15T07:32:24;13.7;52.4
78694;SHT31;68029;51.978;5.646;2023-04-15T07:34:54;13.8;52.4
78694;SHT31;68029;51.978;5.646;2023-04-15T07:37:24;13.8;51.8
78694;SHT31;68029;51.978;5.646;2023-04-15T07:39:55;13.9;51.6
78694;SHT31;68029;51.978;5.646;2023-04-15T07:42:24;13.9;51.3
78694;SHT31;68029;51.978;5.646;2023-04-15T07:44:56;13.9;50.2
78694;SHT31;68029;51.978;5.646;2023-04-15T07:47:26;14.0;49.8
78694;SHT31;68029;51.978;5.646;2023-04-15T07:49:56;14.0;50.3
78694;SHT31;68029;51.978;5.646;2023-04-15T07:52:26;14.1;50.5
78694;SHT31;68029;51.978;5.646;2023-04-15T07:54:56;14.1;49.9
78694;SHT31;68029;51.978;5.646;2023-04-15T07:57:25;14.2;51.0
78694;SHT31;68029;51.978;5.646;2023-04-15T07:59:55;14.3;50.6
78694;SHT31;68029;51.978;5.646;2023-04-15T08:02:25;14.4;50.5
78694;SHT31;68029;51.978;5.646;2023-04-15T08:04:54;14.5;49.7
78694;SHT31;68029;51.978;5.646;2023-04-15T08:07:24;14.6;48.5
78694;SHT31;68029;51.978;5.646;2023-04-15T08:09:53;14.7;48.3
78694;SHT31;68029;51.978;5.646;2023-04-15T08:12:23;14.7;47.9
78694;SHT31;68029;51.978;5.646;2023-04-15T08:14:54;14.8;48.8
78694;SHT31;68029;51.978;5.646;2023-04-15T08:17:24;14.8;47.9
78694;SHT31;68029;51.978;5.646;2023-04-15T08:19:54;14.8;47.7
78694;SHT31;68029;51.978;5.646;2023-04-15T08:22:24;14.8;48.3
78694;SHT31;68029;51.978;5.646;2023-04-15T08:24:54;14.8;48.6
78694;SHT31;68029;51.978;5.646;2023-04-15T08:27:24;14.8;48.7
78694;SHT31;68029;51.978;5.646;2023-04-15T08:29:53;14.8;48.4
78694;SHT31;68029;51.978;5.646;2023-04-15T08:32:23;14.8;48.2
78694;SHT31;68029;51.978;5.646;2023-04-15T08:34:54;14.9;48.7
78694;SHT31;68029;51.978;5.646;2023-04-15T08:37:26;14.9;48.0
78694;SHT31;68029;51.978;5.646;2023-04-15T08:39:57;14.9;48.2
78694;SHT31;68029;51.978;5.646;2023-04-15T08:42:31;14.9;48.5
78694;SHT31;68029;51.978;5.646;2023-04-15T08:45:08;15.0;48.5
78694;SHT31;68029;51.978;5.646;2023-04-15T08:47:39;15.1;48.3
78694;SHT31;68029;51.978;5.646;2023-04-15T08:50:13;15.2;48.3
78694;SHT31;68029;51.978;5.646;2023-04-15T08:52:43;15.3;47.3
78694;SHT31;68029;51.978;5.646;2023-04-15T08:55:15;15.4;46.7
78694;SHT31;68029;51.978;5.646;2023-04-15T08:57:44;15.5;46.8
78694;SHT31;68029;51.978;5.646;2023-04-15T09:00:16;15.6;47.4
78694;SHT31;68029;51.978;5.646;2023-04-15T09:02:46;15.7;45.8
78694;SHT31;68029;51.978;5.646;2023-04-15T09:05:16;15.8;46.8
78694;SHT31;68029;51.978;5.646;2023-04-15T09:07:49;15.9;46.3
78694;SHT31;68029;51.978;5.646;2023-04-15T09:10:19;16.0;45.9
78694;SHT31;68029;51.978;5.646;2023-04-15T09:12:49;16.1;45.2
78694;SHT31;68029;51.978;5.646;2023-04-15T09:15:19;16.1;46.0
78694;SHT31;68029;51.978;5.646;2023-04-15T09:17:50;16.2;46.0
78694;SHT31;68029;51.978;5.646;2023-04-15T09:20:20;16.2;45.8
78694;SHT31;68029;51.978;5.646;2023-04-15T09:22:51;16.3;45.6
78694;SHT31;68029;51.978;5.646;2023-04-15T09:25:29;16.3;45.0
78694;SHT31;68029;51.978;5.646;2023-04-15T09:28:00;16.4;46.2
78694;SHT31;68029;51.978;5.646;2023-04-15T09:30:30;16.4;44.7
78694;SHT31;68029;51.978;5.646;2023-04-15T09:33:01;16.4;45.8
78694;SHT31;68029;51.978;5.646;2023-04-15T09:35:34;16.5;45.7
78694;SHT31;68029;51.978;5.646;2023-04-15T09:38:07;16.5;46.1
78694;SHT31;68029;51.978;5.646;2023-04-15T09:40:38;16.5;44.9
78694;SHT31;68029;51.978;5.646;2023-04-15T09:43:09;16.6;43.8
78694;SHT31;68029;51.978;5.646;2023-04-15T09:45:50;16.6;42.5
78694;SHT31;68029;51.978;5.646;2023-04-15T09:48:22;16.7;42.9
78694;SHT31;68029;51.978;5.646;2023-04-15T09:50:57;16.7;43.3
78694;SHT31;68029;51.978;5.646;2023-04-15T09:53:28;16.8;43.0
78694;SHT31;68029;51.978;5.646;2023-04-15T09:55:59;16.8;43.0
78694;SHT31;68029;51.978;5.646;2023-04-15T09:58:33;16.9;44.0
78694;SHT31;68029;51.978;5.646;2023-04-15T10:01:05;17.1;43.7
78694;SHT31;68029;51.978;5.646;2023-04-15T10:03:37;17.2;43.5
78694;SHT31;68029;51.978;5.646;2023-04-15T10:06:09;17.4;42.3
78694;SHT31;68029;51.978;5.646;2023-04-15T10:08:42;17.5;41.8
78694;SHT31;68029;51.978;5.646;2023-04-15T10:11:16;17.6;41.3
78694;SHT31;68029;51.978;5.646;2023-04-15T10:13:48;17.7;41.6
78694;SHT31;68029;51.978;5.646;2023-04-15T10:16:19;17.8;42.2
78694;SHT31;68029;51.978;5.646;2023-04-15T10:18:54;17.9;42.3
78694;SHT31;68029;51.978;5.646;2023-04-15T10:21:27;17.9;41.7
78694;SHT31;68029;51.978;5.646;2023-04-15T10:23:57;18.0;41.8
78694;SHT31;68029;51.978;5.646;2023-04-15T10:26:29;18.1;42.2
78694;SHT31;68029;51.978;5.646;2023-04-15T10:28:59;18.2;41.7
78694;SHT31;68029;51.978;5.646;2023-04-15T10:31:30;18.3;40.6
78694;SHT31;68029;51.978;5.646;2023-04-15T10:34:03;18.3;41.5
78694;SHT31;68029;51.978;5.646;2023-04-15T10:36:33;18.3;41.5
78694;SHT31;68029;51.978;5.646;2023-04-15T10:39:37;18.4;41.1
78694;SHT31;68029;51.978;5.646;2023-04-15T10:42:08;18.4;41.0
78694;SHT31;68029;51.978;5.646;2023-04-15T10:44:41;18.4;41.6
78694;SHT31;68029;51.978;5.646;2023-04-15T10:47:13;18.5;41.4
78694;SHT31;68029;51.978;5.646;2023-04-15T10:49:48;18.5;40.2
78694;SHT31;68029;51.978;5.646;2023-04-15T10:52:26;18.6;41.0
78694;SHT31;68029;51.978;5.646;2023-04-15T10:55:13;18.6;41.9
78694;SHT31;68029;51.978;5.646;2023-04-15T10:57:44;18.6;42.5
78694;SHT31;68029;51.978;5.646;2023-04-15T11:00:16;18.7;41.5
78694;SHT31;68029;51.978;5.646;2023-04-15T11:02:54;18.9;41.7
78694;SHT31;68029;51.978;5.646;2023-04-15T11:05:49;19.0;41.6
78694;SHT31;68029;51.978;5.646;2023-04-15T11:08:53;19.3;39.9
78694;SHT31;68029;51.978;5.646;2023-04-15T11:12:08;19.4;39.2
78694;SHT31;68029;51.978;5.646;2023-04-15T11:14:40;19.5;39.7
78694;SHT31;68029;51.978;5.646;2023-04-15T11:17:10;19.6;39.5
78694;SHT31;68029;51.978;5.646;2023-04-15T11:19:41;19.7;38.1
78694;SHT31;68029;51.978;5.646;2023-04-15T11:22:11;19.7;39.0
78694;SHT31;68029;51.978;5.646;2023-04-15T11:24:48;19.7;38.7
78694;SHT31;68029;51.978;5.646;2023-04-15T11:27:23;19.7;38.4
78694;SHT31;68029;51.978;5.646;2023-04-15T11:29:52;19.7;38.5
78694;SHT31;68029;51.978;5.646;2023-04-15T11:32:22;19.7;39.8
78694;SHT31;68029;51.978;5.646;2023-04-15T11:34:52;19.7;39.3
78694;SHT31;68029;51.978;5.646;2023-04-15T11:37:29;19.8;38.8
78694;SHT31;68029;51.978;5.646;2023-04-15T11:40:01;19.8;38.0
78694;SHT31;68029;51.978;5.646;2023-04-15T11:42:32;19.8;37.6
78694;SHT31;68029;51.978;5.646;2023-04-15T11:45:08;19.8;37.2
78694;SHT31;68029;51.978;5.646;2023-04-15T11:47:38;19.8;37.7
78694;SHT31;68029;51.978;5.646;2023-04-15T11:50:15;19.8;37.2
78694;SHT31;68029;51.978;5.646;2023-04-15T11:52:56;19.8;38.7
78694;SHT31;68029;51.978;5.646;2023-04-15T11:55:26;19.8;39.2
78694;SHT31;68029;51.978;5.646;2023-04-15T11:58:13;19.8;38.6
78694;SHT31;68029;51.978;5.646;2023-04-15T12:00:48;19.8;38.2
78694;SHT31;68029;51.978;5.646;2023-04-15T12:03:21;19.9;38.1
78694;SHT31;68029;51.978;5.646;2023-04-15T12:06:09;19.9;36.5
78694;SHT31;68029;51.978;5.646;2023-04-15T12:09:40;19.9;37.4
78694;SHT31;68029;51.978;5.646;2023-04-15T12:12:09;19.9;37.6
78694;SHT31;68029;51.978;5.646;2023-04-15T12:14:39;19.9;37.5
78694;SHT31;68029;51.978;5.646;2023-04-15T12:17:11;19.9;37.3
78694;SHT31;68029;51.978;5.646;2023-04-15T12:19:42;19.9;38.3
78694;SHT31;68029;51.978;5.646;2023-04-15T12:22:13;19.8;37.5
78694;SHT31;68029;51.978;5.646;2023-04-15T12:24:44;19.8;38.1
78694;SHT31;68029;51.978;5.646;2023-04-15T12:27:16;19.8;38.2
78694;SHT31;68029;51.978;5.646;2023-04-15T12:29:45;19.9;38.5
78694;SHT31;68029;51.978;5.646;2023-04-15T12:32:16;19.9;37.5
78694;SHT31;68029;51.978;5.646;2023-04-15T12:34:51;19.9;38.0
78694;SHT31;68029;51.978;5.646;2023-04-15T12:37:21;20.0;38.1
78694;SHT31;68029;51.978;5.646;2023-04-15T12:39:54;20.0;38.2
78694;SHT31;68029;51.978;5.646;2023-04-15T12:42:24;20.0;37.8
78694;SHT31;68029;51.978;5.646;2023-04-15T12:44:56;20.0;38.2
78694;SHT31;68029;51.978;5.646;2023-04-15T12:47:25;19.9;37.3
78694;SHT31;68029;51.978;5.646;2023-04-15T12:49:55;19.8;37.6
78694;SHT31;68029;51.978;5.646;2023-04-15T12:52:25;19.7;38.7
78694;SHT31;68029;51.978;5.646;2023-04-15T12:54:55;19.6;38.6
78694;SHT31;68029;51.978;5.646;2023-04-15T12:57:25;19.6;38.0
78694;SHT31;68029;51.978;5.646;2023-04-15T12:59:54;19.6;37.6
78694;SHT31;68029;51.978;5.646;2023-04-15T13:02:24;19.6;37.6
78694;SHT31;68029;51.978;5.646;2023-04-15T13:04:55;19.6;38.1
78694;SHT31;68029;51.978;5.646;2023-04-15T13:07:25;19.7;38.2
78694;SHT31;68029;51.978;5.646;2023-04-15T13:09:54;19.7;38.4
78694;SHT31;68029;51.978;5.646;2023-04-15T13:12:24;19.7;38.0
78694;SHT31;68029;51.978;5.646;2023-04-15T13:14:54;19.7;37.6
78694;SHT31;68029;51.978;5.646;2023-04-15T13:17:23;19.6;37.7
78694;SHT31;68029;51.978;5.646;2023-04-15T13:19:53;19.5;38.3
78694;SHT31;68029;51.978;5.646;2023-04-15T13:22:22;19.3;38.6
78694;SHT31;68029;51.978;5.646;2023-04-15T13:24:52;19.3;40.4
78694;SHT31;68029;51.978;5.646;2023-04-15T13:27:21;19.3;39.8
78694;SHT31;68029;51.978;5.646;2023-04-15T13:29:51;19.3;40.1
78694;SHT31;68029;51.978;5.646;2023-04-15T13:32:20;19.4;39.3
78694;SHT31;68029;51.978;5.646;2023-04-15T13:34:52;19.4;39.4
78694;SHT31;68029;51.978;5.646;2023-04-15T13:37:27;19.4;39.8
78694;SHT31;68029;51.978;5.646;2023-04-15T13:39:57;19.4;40.3
78694;SHT31;68029;51.978;5.646;2023-04-15T13:42:27;19.4;40.4
78694;SHT31;68029;51.978;5.646;2023-04-15T13:44:57;19.5;41.1
78694;SHT31;68029;51.978;5.646;2023-04-15T13:47:26;19.5;39.3
78694;SHT31;68029;51.978;5.646;2023-04-15T13:49:56;19.5;39.2
78694;SHT31;68029;51.978;5.646;2023-04-15T13:52:26;19.4;39.4
78694;SHT31;68029;51.978;5.646;2023-04-15T13:54:55;19.4;39.5
78694;SHT31;68029;51.978;5.646;2023-04-15T13:57:26;19.3;39.3
78694;SHT31;68029;51.978;5.646;2023-04-15T13:59:58;19.2;39.4
78694;SHT31;68029;51.978;5.646;2023-04-15T14:02:29;19.1;39.9
78694;SHT31;68029;51.978;5.646;2023-04-15T14:05:00;18.9;39.9
78694;SHT31;68029;51.978;5.646;2023-04-15T14:07:30;18.8;40.0
78694;SHT31;68029;51.978;5.646;2023-04-15T14:10:00;18.6;41.1
78694;SHT31;68029;51.978;5.646;2023-04-15T14:12:30;18.5;41.6
78694;SHT31;68029;51.978;5.646;2023-04-15T14:14:59;18.3;42.2
78694;SHT31;68029;51.978;5.646;2023-04-15T14:17:31;18.2;42.6
78694;SHT31;68029;51.978;5.646;2023-04-15T14:20:01;18.1;42.4
78694;SHT31;68029;51.978;5.646;2023-04-15T14:22:31;17.9;43.5
78694;SHT31;68029;51.978;5.646;2023-04-15T14:25:00;17.8;43.6
78694;SHT31;68029;51.978;5.646;2023-04-15T14:27:30;17.8;43.7
78694;SHT31;68029;51.978;5.646;2023-04-15T14:29:59;17.7;43.1
78694;SHT31;68029;51.978;5.646;2023-04-15T14:32:29;17.6;43.3
78694;SHT31;68029;51.978;5.646;2023-04-15T14:34:59;17.5;43.7
78694;SHT31;68029;51.978;5.646;2023-04-15T14:37:30;17.4;44.0
78694;SHT31;68029;51.978;5.646;2023-04-15T14:40:00;17.3;44.7
78694;SHT31;68029;51.978;5.646;2023-04-15T14:42:29;17.2;44.2
78694;SHT31;68029;51.978;5.646;2023-04-15T14:44:59;17.1;44.3
78694;SHT31;68029;51.978;5.646;2023-04-15T14:47:28;17.0;44.7
78694;SHT31;68029;51.978;5.646;2023-04-15T14:49:59;16.9;45.0
78694;SHT31;68029;51.978;5.646;2023-04-15T14:52:29;16.8;45.3
78694;SHT31;68029;51.978;5.646;2023-04-15T14:54:59;16.7;45.0
78694;SHT31;68029;51.978;5.646;2023-04-15T14:57:28;16.5;45.3
78694;SHT31;68029;51.978;5.646;2023-04-15T14:59:58;16.4;45.7
78694;SHT31;68029;51.978;5.646;2023-04-15T15:02:28;16.3;46.1
78694;SHT31;68029;51.978;5.646;2023-04-15T15:05:00;16.1;46.4
78694;SHT31;68029;51.978;5.646;2023-04-15T15:07:30;16.0;47.0
78694;SHT31;68029;51.978;5.646;2023-04-15T15:10:00;15.9;47.6
78694;SHT31;68029;51.978;5.646;2023-04-15T15:12:29;15.8;47.8
78694;SHT31;68029;51.978;5.646;2023-04-15T15:15:00;15.7;48.1
78694;SHT31;68029;51.978;5.646;2023-04-15T15:17:30;15.7;48.3
78694;SHT31;68029;51.978;5.646;2023-04-15T15:20:03;15.6;48.6
78694;SHT31;68029;51.978;5.646;2023-04-15T15:22:34;15.5;49.0
78694;SHT31;68029;51.978;5.646;2023-04-15T15:25:04;15.4;49.5
78694;SHT31;68029;51.978;5.646;2023-04-15T15:27:34;15.4;49.2
78694;SHT31;68029;51.978;5.646;2023-04-15T15:30:04;15.3;49.6
78694;SHT31;68029;51.978;5.646;2023-04-15T15:32:35;15.2;49.5
78694;SHT31;68029;51.978;5.646;2023-04-15T15:35:05;15.1;50.2
78694;SHT31;68029;51.978;5.646;2023-04-15T15:37:35;15.1;50.3
78694;SHT31;68029;51.978;5.646;2023-04-15T15:40:06;15.0;49.8
78694;SHT31;68029;51.978;5.646;2023-04-15T15:42:36;15.0;50.4
78694;SHT31;68029;51.978;5.646;2023-04-15T15:45:07;14.9;50.6
78694;SHT31;68029;51.978;5.646;2023-04-15T15:47:39;14.9;50.9
78694;SHT31;68029;51.978;5.646;2023-04-15T15:50:11;14.9;50.7
78694;SHT31;68029;51.978;5.646;2023-04-15T15:52:44;14.8;50.6
78694;SHT31;68029;51.978;5.646;2023-04-15T15:55:13;14.8;50.3
78694;SHT31;68029;51.978;5.646;2023-04-15T15:57:43;14.8;50.2
78694;SHT31;68029;51.978;5.646;2023-04-15T16:00:14;14.7;50.5
78694;SHT31;68029;51.978;5.646;2023-04-15T16:02:44;14.6;50.8
78694;SHT31;68029;51.978;5.646;2023-04-15T16:05:15;14.6;51.0
78694;SHT31;68029;51.978;5.646;2023-04-15T16:07:45;14.5;50.8
78694;SHT31;68029;51.978;5.646;2023-04-15T16:10:15;14.4;51.3
78694;SHT31;68029;51.978;5.646;2023-04-15T16:12:45;14.4;51.4
78694;SHT31;68029;51.978;5.646;2023-04-15T16:15:14;14.3;52.0
78694;SHT31;68029;51.978;5.646;2023-04-15T16:17:45;14.3;52.1
78694;SHT31;68029;51.978;5.646;2023-04-15T16:20:14;14.3;52.2
78694;SHT31;68029;51.978;5.646;2023-04-15T16:22:44;14.2;52.0
78694;SHT31;68029;51.978;5.646;2023-04-15T16:25:14;14.2;52.0
78694;SHT31;68029;51.978;5.646;2023-04-15T16:27:44;14.1;52.1
78694;SHT31;68029;51.978;5.646;2023-04-15T16:30:14;14.0;52.5